メインページ
METAR-TAF:

METAR-TAF

空港 :

アンリ・コアンダ国際空港

ブカレスト, ルーマニア

緯度: 44-33N, 経度: 026-06E, 海抜: 95m

現時点の気象観測

当レポートは38分前の11:00(UTC)に作成
北東の風 6kt
気温 8°C
湿度 100%
気圧 1001 hPa
視程: 7000m
高度400ftの千切れ雲あり
高度1000ftの千切れ雲あり

METAR: LROP 141100Z 04006KT 7000 BKN004 BKN010 08/08 Q1001 R88/29//95 BECMG SCT015

時間: 13:38 (11:38 UTC)

予報

当レポートは6時間38分前の05:00(UTC)に作成
予報は14日の 06時(UTC)から 15日の 06時(UTC)まで有効
の風 10kt
視程: 0350m
高度100ftの曇り
14日の 07時(UTC)から 14日の 09時(UTC)まで徐々に
視程: 0800m
高度200ftの曇り
14日の 09時(UTC)から 14日の 10時(UTC)まで徐々に
視程: 1500m
高度500ftの千切れ雲あり
14日の 10時(UTC)から 14日の 12時(UTC)まで徐々に
視程: 5000m
高度1000ftの千切れ雲あり
14日の 18時(UTC)から 14日の 20時(UTC)まで徐々に
西の風 12kt
視程10km以上
高度2500ftの千切れ雲あり
14日の 20時(UTC)から 15日の 02時(UTC)まで一時的に
視程: 3000m
高度500ftの千切れ雲あり
高度2000ftの曇り
小雨, 靄

TAF: LROP 140500Z 1406/1506 08010KT 0350 FG OVC001 BECMG 1407/1409 0800 OVC002 BECMG 1409/1410 1500 BR BKN005 BECMG 1410/1412 5000 BKN010 BECMG 1418/1420 26012KT 9999 NSW BKN025 TEMPO 1420/1502 3000 -RA BR BKN005 OVC020

4,000以上の空港の気象観測と天気予報(METAR報とTAF報)

利用可能な観測所は地図上に黄色い丸と赤い丸で示す。

丸の上にカーソルを重ねると観測所名を参照できる。

次にクリックすると気象観測と天気予報を参照できる。

マップの切り替え:黒色「×」印の緑ボタンをクリックして拡大、「-」印の緑ボタンをクリックして縮小、緑色の三角印をクリックして隣りの地図に切り替え


METAR-TAF: